createdAt,value
2023-07-18T00:01:59.845Z,15.66
2023-07-18T00:12:01.683Z,15.63
2023-07-18T00:22:03.210Z,15.47
2023-07-18T00:32:05.221Z,15.42
2023-07-18T00:42:07.341Z,15.40
2023-07-18T00:52:09.713Z,15.32
2023-07-18T01:02:11.387Z,14.98
2023-07-18T01:12:13.337Z,15.15
2023-07-18T01:22:14.838Z,15.04
2023-07-18T01:32:17.390Z,14.85
2023-07-18T01:42:20.355Z,14.83
2023-07-18T01:52:21.869Z,14.75
2023-07-18T02:02:23.597Z,14.73
2023-07-18T02:12:25.307Z,14.68
2023-07-18T02:22:26.863Z,14.65
2023-07-18T02:32:31.923Z,14.46
2023-07-18T02:42:35.007Z,14.44
2023-07-18T02:52:36.989Z,14.46
2023-07-18T03:02:38.583Z,14.32
2023-07-18T03:12:41.927Z,14.35
2023-07-18T03:22:50.961Z,14.33
2023-07-18T03:32:53.372Z,14.27
2023-07-18T03:42:54.900Z,14.28
2023-07-18T03:52:56.433Z,14.20
2023-07-18T04:02:58.756Z,14.17
2023-07-18T04:13:00.367Z,14.22
2023-07-18T04:23:01.949Z,14.29
2023-07-18T04:33:04.165Z,14.49
2023-07-18T04:43:05.672Z,14.73
2023-07-18T04:53:07.208Z,15.09
2023-07-18T05:03:09.201Z,15.50
2023-07-18T05:13:11.154Z,15.79
2023-07-18T05:23:12.775Z,16.01
2023-07-18T05:33:14.693Z,16.13
2023-07-18T05:43:16.449Z,16.35
2023-07-18T05:53:17.906Z,16.74
2023-07-18T06:03:20.169Z,17.18
2023-07-18T06:13:22.023Z,17.85
2023-07-18T06:23:23.459Z,18.34
2023-07-18T06:33:25.416Z,18.79
2023-07-18T06:43:28.666Z,19.17
2023-07-18T06:53:30.183Z,19.57
2023-07-18T07:03:33.042Z,20.00
2023-07-18T07:13:38.113Z,20.45
2023-07-18T07:23:39.641Z,20.80
2023-07-18T07:33:41.240Z,21.11
2023-07-18T07:43:42.840Z,21.42
2023-07-18T07:53:44.482Z,21.84
2023-07-18T08:03:46.041Z,21.98
2023-07-18T08:13:47.702Z,22.27
2023-07-18T08:23:49.165Z,22.53
2023-07-18T08:33:50.697Z,22.78
2023-07-18T08:43:52.524Z,23.16
2023-07-18T08:53:54.126Z,23.18
2023-07-18T09:03:56.518Z,23.38
2023-07-18T09:13:58.293Z,23.44
2023-07-18T09:23:59.828Z,23.77
2023-07-18T09:34:01.306Z,23.69
2023-07-18T09:44:27.625Z,23.27
2023-07-18T09:54:27.336Z,23.61
2023-07-18T10:04:28.920Z,23.53
2023-07-18T10:14:32.063Z,23.84
2023-07-18T10:24:33.753Z,23.90
2023-07-18T10:34:42.385Z,23.83
2023-07-18T10:44:43.836Z,23.71
2023-07-18T10:54:46.380Z,23.66
2023-07-18T11:04:49.402Z,23.54
2023-07-18T11:14:50.942Z,23.56
2023-07-18T11:24:52.945Z,23.80
2023-07-18T11:34:59.343Z,23.98
2023-07-18T11:45:00.943Z,24.02
2023-07-18T11:55:03.645Z,23.96
2023-07-18T12:05:08.922Z,24.01
2023-07-18T12:15:11.600Z,24.11
2023-07-18T12:25:13.164Z,24.13
2023-07-18T12:35:16.005Z,24.23
2023-07-18T12:45:17.991Z,24.38
2023-07-18T12:55:19.467Z,24.33
2023-07-18T13:05:20.914Z,24.46
2023-07-18T13:15:22.779Z,24.46
2023-07-18T13:25:24.200Z,24.44
2023-07-18T13:35:25.766Z,24.38
2023-07-18T13:45:27.321Z,24.39
2023-07-18T13:55:28.957Z,24.31
2023-07-18T14:05:30.451Z,24.32
2023-07-18T14:15:31.844Z,24.25
2023-07-18T14:25:33.412Z,24.25
2023-07-18T14:35:35.126Z,24.32
2023-07-18T14:45:37.635Z,24.27
2023-07-18T14:55:39.180Z,24.26
2023-07-18T15:05:40.654Z,24.26
2023-07-18T15:15:43.134Z,24.29
2023-07-18T15:25:46.184Z,24.27
2023-07-18T15:35:47.764Z,24.33
2023-07-18T15:45:49.615Z,24.35
2023-07-18T15:55:52.792Z,24.31
2023-07-18T16:05:54.632Z,24.34
2023-07-18T16:15:56.145Z,24.32
2023-07-18T16:25:57.717Z,24.34
2023-07-18T16:35:59.935Z,24.37
2023-07-18T16:46:04.411Z,24.34
2023-07-18T16:56:06.097Z,24.35
2023-07-18T17:06:08.734Z,24.33
2023-07-18T17:16:10.587Z,24.31
2023-07-18T17:26:12.212Z,24.21
2023-07-18T17:36:13.858Z,24.15
2023-07-18T17:46:15.387Z,24.06
2023-07-18T17:56:17.111Z,24.01
2023-07-18T18:06:18.849Z,23.96
2023-07-18T18:16:20.603Z,23.79
2023-07-18T18:26:22.288Z,23.63
2023-07-18T18:36:24.684Z,23.50
2023-07-18T18:46:26.369Z,23.24
2023-07-18T18:56:27.961Z,23.15
2023-07-18T19:06:29.422Z,23.03
2023-07-18T19:16:38.784Z,22.89
2023-07-18T19:26:41.285Z,22.74
2023-07-18T19:36:42.934Z,22.50
2023-07-18T19:46:44.471Z,22.34
2023-07-18T19:56:46.401Z,22.09
2023-07-18T20:06:47.966Z,21.74
2023-07-18T20:16:49.401Z,21.30
2023-07-18T20:26:50.955Z,20.94
2023-07-18T20:36:52.579Z,20.95
2023-07-18T20:46:54.158Z,20.61
2023-07-18T20:56:55.705Z,20.45
2023-07-18T21:06:57.204Z,20.17
2023-07-18T21:16:58.808Z,20.02
2023-07-18T21:27:00.401Z,19.85
2023-07-18T21:37:02.207Z,19.43
2023-07-18T21:47:03.757Z,19.30
2023-07-18T21:57:05.316Z,19.16
2023-07-18T22:07:10.514Z,18.95
2023-07-18T22:17:12.165Z,18.84
2023-07-18T22:27:13.832Z,18.77
2023-07-18T22:37:15.369Z,18.32
2023-07-18T22:47:17.604Z,18.14
2023-07-18T22:57:19.430Z,18.43
2023-07-18T23:07:20.868Z,18.31
2023-07-18T23:17:22.383Z,18.19
2023-07-18T23:27:24.305Z,18.11
2023-07-18T23:37:25.885Z,17.94
2023-07-18T23:47:27.381Z,17.73
2023-07-18T23:57:28.774Z,17.35
